createdAt,value
2022-11-16T00:03:13.679Z,85.73
2022-11-16T00:08:17.029Z,84.74
2022-11-16T00:13:20.933Z,84.19
2022-11-16T00:18:25.844Z,83.37
2022-11-16T00:23:29.262Z,82.73
2022-11-16T00:28:33.031Z,82.31
2022-11-16T00:33:38.453Z,81.82
2022-11-16T00:38:42.662Z,81.89
2022-11-16T00:43:48.360Z,80.38
2022-11-16T00:48:53.144Z,81.41
2022-11-16T00:53:56.533Z,82.50
2022-11-16T00:58:59.936Z,83.42
2022-11-16T01:04:04.967Z,84.22
2022-11-16T01:09:08.441Z,84.75
2022-11-16T01:14:12.553Z,83.39
2022-11-16T01:19:17.357Z,83.23
2022-11-16T01:24:21.022Z,82.38
2022-11-16T01:29:25.204Z,82.46
2022-11-16T01:34:34.634Z,82.53
2022-11-16T01:39:44.915Z,83.07
2022-11-16T01:45:04.332Z,83.33
2022-11-16T01:50:13.903Z,83.75
2022-11-16T01:55:19.908Z,83.79
2022-11-16T02:00:43.599Z,84.13
2022-11-16T02:06:29.982Z,83.66
2022-11-16T02:12:09.777Z,82.58
2022-11-16T02:17:21.332Z,83.44
2022-11-16T02:22:40.808Z,82.61
2022-11-16T02:28:12.572Z,82.88
2022-11-16T02:33:22.168Z,82.63
2022-11-16T02:38:29.188Z,83.29
2022-11-16T02:43:37.431Z,82.91
2022-11-16T02:48:48.252Z,83.09
2022-11-16T02:54:03.223Z,83.92
2022-11-16T02:59:14.141Z,83.54
2022-11-16T03:04:28.906Z,83.11
2022-11-16T03:09:35.891Z,84.40
2022-11-16T03:14:44.260Z,84.02
2022-11-16T03:19:59.073Z,84.80
2022-11-16T03:25:02.827Z,85.57
2022-11-16T03:30:09.760Z,86.30
2022-11-16T03:35:25.230Z,86.79
2022-11-16T03:40:32.017Z,86.80
2022-11-16T03:45:37.389Z,86.52
2022-11-16T03:50:44.843Z,86.84
2022-11-16T03:55:50.201Z,86.03
2022-11-16T04:00:54.617Z,86.35
2022-11-16T04:06:16.959Z,85.63
2022-11-16T04:11:40.312Z,85.04
2022-11-16T04:17:02.623Z,85.49
2022-11-16T04:22:37.788Z,84.59
2022-11-16T04:27:58.857Z,85.54
2022-11-16T04:33:19.997Z,86.40
2022-11-16T04:38:25.139Z,86.78
2022-11-16T04:43:29.573Z,86.27
2022-11-16T04:48:33.695Z,86.71
2022-11-16T04:53:41.613Z,86.28
2022-11-16T04:58:53.225Z,86.80
2022-11-16T05:03:56.773Z,87.77
2022-11-16T05:09:01.660Z,87.92
2022-11-16T05:14:06.635Z,88.19
2022-11-16T05:19:27.484Z,89.05
2022-11-16T05:24:35.732Z,89.06
2022-11-16T05:29:40.937Z,88.98
2022-11-16T05:34:45.235Z,89.27
2022-11-16T05:39:50.270Z,89.57
2022-11-16T05:44:55.774Z,89.94
2022-11-16T05:49:59.971Z,89.85
2022-11-16T05:55:10.754Z,90.57
2022-11-16T06:00:20.788Z,91.51
2022-11-16T06:05:27.754Z,91.44
2022-11-16T06:10:33.981Z,91.05
2022-11-16T06:15:38.716Z,91.36
2022-11-16T06:20:44.265Z,91.45
2022-11-16T06:25:53.641Z,90.65
2022-11-16T06:30:57.639Z,90.14
2022-11-16T06:36:02.973Z,89.89
2022-11-16T06:41:09.085Z,89.92
2022-11-16T06:46:18.061Z,89.29
2022-11-16T06:51:21.611Z,89.66
2022-11-16T06:56:26.661Z,89.34
2022-11-16T07:01:32.989Z,88.99
2022-11-16T07:06:42.180Z,89.72
2022-11-16T07:11:47.719Z,89.27
2022-11-16T07:16:59.040Z,88.18
2022-11-16T07:22:03.615Z,87.71
2022-11-16T07:27:10.026Z,86.78
2022-11-16T07:32:17.503Z,86.37
2022-11-16T07:37:39.286Z,86.37
2022-11-16T07:42:45.933Z,86.54
2022-11-16T07:47:52.453Z,86.94
2022-11-16T07:53:18.654Z,86.92
2022-11-16T07:58:23.525Z,87.48
2022-11-16T08:03:27.563Z,86.45
2022-11-16T08:08:31.870Z,86.87
2022-11-16T08:13:38.411Z,85.79
2022-11-16T08:18:43.161Z,85.12
2022-11-16T08:23:47.345Z,85.91
2022-11-16T08:28:54.034Z,83.54
2022-11-16T08:34:01.987Z,82.77
2022-11-16T08:39:07.522Z,81.35
2022-11-16T08:44:12.891Z,81.48
2022-11-16T08:49:20.490Z,79.66
2022-11-16T08:54:24.454Z,77.91
2022-11-16T08:59:29.569Z,75.82
2022-11-16T09:04:38.222Z,75.83
2022-11-16T09:09:41.591Z,76.45
2022-11-16T09:14:46.337Z,76.72
2022-11-16T09:19:49.665Z,75.67
2022-11-16T09:24:53.005Z,75.82
2022-11-16T09:29:57.702Z,75.78
2022-11-16T09:35:01.049Z,75.93
2022-11-16T09:45:36.535Z,75.10
2022-11-16T09:56:21.681Z,75.36
2022-11-16T10:01:30.403Z,75.72
2022-11-16T10:06:48.743Z,75.38
2022-11-16T10:12:08.268Z,72.34
2022-11-16T10:17:22.510Z,70.97
2022-11-16T10:22:40.959Z,68.63
2022-11-16T10:28:11.835Z,68.55
2022-11-16T10:33:20.579Z,66.45
2022-11-16T10:38:28.386Z,65.46
2022-11-16T10:43:34.092Z,65.07
2022-11-16T10:48:44.335Z,64.81
2022-11-16T10:53:48.115Z,64.67
2022-11-16T10:58:54.251Z,64.20
2022-11-16T11:04:01.256Z,64.09
2022-11-16T11:09:16.307Z,63.95
2022-11-16T11:14:19.657Z,64.71
2022-11-16T11:19:28.610Z,63.95
2022-11-16T11:24:47.491Z,63.80
2022-11-16T11:29:55.263Z,63.53
2022-11-16T11:35:01.725Z,63.85
2022-11-16T11:40:21.621Z,63.16
2022-11-16T11:45:31.775Z,61.77
2022-11-16T11:50:45.789Z,60.81
2022-11-16T11:55:50.838Z,61.63
2022-11-16T12:01:07.696Z,60.83
2022-11-16T12:06:20.639Z,61.29
2022-11-16T12:11:34.274Z,61.94
2022-11-16T12:16:46.239Z,62.56
2022-11-16T12:22:04.328Z,63.42
2022-11-16T12:27:17.581Z,63.23
2022-11-16T12:32:53.106Z,62.83
2022-11-16T12:38:05.166Z,64.27
2022-11-16T12:43:17.706Z,64.54
2022-11-16T12:48:56.319Z,64.96
2022-11-16T12:54:25.842Z,66.10
2022-11-16T12:59:49.253Z,67.11
2022-11-16T13:04:58.593Z,66.94
2022-11-16T13:10:09.047Z,66.13
2022-11-16T13:15:19.459Z,66.86
2022-11-16T13:20:33.174Z,67.19
2022-11-16T13:25:47.265Z,67.44
2022-11-16T13:31:01.996Z,67.60
2022-11-16T13:36:40.578Z,67.49
2022-11-16T13:41:46.825Z,68.02
2022-11-16T13:46:56.319Z,69.09
2022-11-16T13:52:22.050Z,69.55
2022-11-16T13:57:32.572Z,69.76
2022-11-16T14:02:37.345Z,69.98
2022-11-16T14:07:42.879Z,69.27
2022-11-16T14:12:57.346Z,69.33
2022-11-16T14:18:37.358Z,70.30
2022-11-16T14:24:11.895Z,70.89
2022-11-16T14:29:39.759Z,71.34
2022-11-16T14:34:48.208Z,71.62
2022-11-16T14:39:53.281Z,72.18
2022-11-16T14:45:02.934Z,72.94
2022-11-16T14:50:19.961Z,73.70
2022-11-16T14:55:25.692Z,74.02
2022-11-16T15:00:30.634Z,74.55
2022-11-16T15:05:36.974Z,74.78
2022-11-16T15:10:51.022Z,75.24
2022-11-16T15:16:16.857Z,75.20
2022-11-16T15:21:23.692Z,75.40
2022-11-16T15:26:27.103Z,75.46
2022-11-16T15:31:31.946Z,76.80
2022-11-16T15:36:40.730Z,76.99
2022-11-16T15:41:44.386Z,78.05
2022-11-16T15:46:52.094Z,78.36
2022-11-16T15:51:55.562Z,78.08
2022-11-16T15:57:08.094Z,78.39
2022-11-16T16:02:19.632Z,78.27
2022-11-16T16:07:39.249Z,79.03
2022-11-16T16:12:50.467Z,79.73
2022-11-16T16:17:55.750Z,79.23
2022-11-16T16:23:09.962Z,79.19
2022-11-16T16:28:15.017Z,80.32
2022-11-16T16:33:22.098Z,81.50
2022-11-16T16:38:25.499Z,81.28
2022-11-16T16:43:29.000Z,81.22
2022-11-16T16:48:33.798Z,81.53
2022-11-16T16:53:37.402Z,80.84
2022-11-16T16:58:40.855Z,80.03
2022-11-16T17:03:45.758Z,80.84
2022-11-16T17:08:49.102Z,80.97
2022-11-16T17:13:52.490Z,80.32
2022-11-16T17:18:57.526Z,80.71
2022-11-16T17:24:00.966Z,81.24
2022-11-16T17:29:04.775Z,81.81
2022-11-16T17:34:13.877Z,82.26
2022-11-16T17:39:18.293Z,82.25
2022-11-16T17:44:22.346Z,81.33
2022-11-16T17:49:27.389Z,80.39
2022-11-16T17:54:30.763Z,79.94
2022-11-16T17:59:34.405Z,79.77
2022-11-16T18:04:39.199Z,80.64
2022-11-16T18:09:42.614Z,80.89
2022-11-16T18:15:06.251Z,81.30
2022-11-16T18:20:12.410Z,82.44
2022-11-16T18:25:17.611Z,82.62
2022-11-16T18:30:21.713Z,82.76
2022-11-16T18:35:26.467Z,84.23
2022-11-16T18:40:30.374Z,83.28
2022-11-16T18:45:33.806Z,83.29
2022-11-16T18:50:38.623Z,82.91
2022-11-16T18:55:44.806Z,83.20
2022-11-16T19:00:48.769Z,82.74
2022-11-16T19:05:59.146Z,83.38
2022-11-16T19:11:05.911Z,82.57
2022-11-16T19:16:10.004Z,83.26
2022-11-16T19:21:18.412Z,83.41
2022-11-16T19:26:24.819Z,83.36
2022-11-16T19:31:29.932Z,83.46
2022-11-16T19:36:36.934Z,84.02
2022-11-16T19:41:40.304Z,83.05
2022-11-16T19:46:43.702Z,83.39
2022-11-16T19:51:49.387Z,83.14
2022-11-16T19:56:55.178Z,82.62
2022-11-16T20:01:58.835Z,82.69
2022-11-16T20:07:03.710Z,82.70
2022-11-16T20:12:07.468Z,82.30
2022-11-16T20:17:11.676Z,82.12
2022-11-16T20:22:16.889Z,81.69
2022-11-16T20:27:20.235Z,82.01
2022-11-16T20:32:25.118Z,81.70
2022-11-16T20:37:29.887Z,81.49
2022-11-16T20:42:33.304Z,81.32
2022-11-16T20:47:36.722Z,80.99
2022-11-16T20:52:44.286Z,80.85
2022-11-16T20:57:49.566Z,80.86
2022-11-16T21:02:52.956Z,80.86
2022-11-16T21:07:57.716Z,80.24
2022-11-16T21:13:18.212Z,80.59
2022-11-16T21:18:24.243Z,80.38
2022-11-16T21:23:33.548Z,80.85
2022-11-16T21:28:37.113Z,80.53
2022-11-16T21:33:40.953Z,80.08
2022-11-16T21:38:46.088Z,80.54
2022-11-16T21:43:50.164Z,80.89
2022-11-16T21:48:55.491Z,81.02
2022-11-16T21:54:00.260Z,81.81
2022-11-16T21:59:03.645Z,81.69
2022-11-16T22:04:39.220Z,81.25
2022-11-16T22:09:44.080Z,81.18
2022-11-16T22:14:47.479Z,80.81
2022-11-16T22:19:50.901Z,80.77
2022-11-16T22:24:55.675Z,80.29
2022-11-16T22:29:59.226Z,80.99
2022-11-16T22:35:02.622Z,80.73
2022-11-16T22:40:12.479Z,80.02
2022-11-16T22:45:18.531Z,81.06
2022-11-16T22:50:23.521Z,80.98
2022-11-16T22:55:28.325Z,81.04
2022-11-16T23:00:33.349Z,81.89
2022-11-16T23:05:38.558Z,81.60
2022-11-16T23:10:57.144Z,82.05
2022-11-16T23:16:05.065Z,81.22
2022-11-16T23:21:25.428Z,81.40
2022-11-16T23:26:47.827Z,81.80
2022-11-16T23:31:51.250Z,82.81
2022-11-16T23:36:54.618Z,83.05
2022-11-16T23:42:17.322Z,83.62
2022-11-16T23:47:20.686Z,84.53
2022-11-16T23:52:24.010Z,84.87
2022-11-16T23:57:28.787Z,84.92
